Time;durP1;ratioP1;P1;durP2;ratioP2;P2;SDS_P1;SDS_P2;PMS_P1;PMS_P2;Temp;Humidity;BMP_temperature;BMP_pressure;BME280_temperature;BME280_humidity;BME280_pressure;Samples;Min_cycle;Max_cycle;Signal;HPM_P1;HPM_P2
2020/12/07 00:01:26;;;;;;;15.60;7.70;;;4.00;99.10;;;;;;5041219;28;20184;-82
2020/12/07 00:03:51;;;;;;;18.58;8.55;;;3.90;99.10;;;;;;5039874;28;20201;-83
2020/12/07 00:06:18;;;;;;;14.50;7.93;;;3.90;99.10;;;;;;5039317;28;20196;-83
2020/12/07 00:08:45;;;;;;;14.25;7.55;;;3.90;99.10;;;;;;5039633;28;20742;-82
2020/12/07 00:11:11;;;;;;;15.77;8.15;;;3.90;99.10;;;;;;5040130;28;20296;-83
2020/12/07 00:13:37;;;;;;;16.73;8.93;;;3.80;99.10;;;;;;5039676;28;20177;-83
2020/12/07 00:16:06;;;;;;;16.27;8.70;;;3.80;99.10;;;;;;5039612;28;20213;-83
2020/12/07 00:18:32;;;;;;;21.80;9.10;;;3.60;99.10;;;;;;5039928;28;20180;-83
2020/12/07 00:20:58;;;;;;;15.97;8.87;;;3.60;99.10;;;;;;5040363;28;20538;-83
2020/12/07 00:23:24;;;;;;;19.60;9.70;;;3.60;99.10;;;;;;5040229;28;20399;-83
2020/12/07 00:25:49;;;;;;;15.43;8.03;;;3.60;99.10;;;;;;5039360;28;20432;-83
2020/12/07 00:28:15;;;;;;;14.67;7.50;;;3.50;99.10;;;;;;5039513;28;20485;-83
2020/12/07 00:30:41;;;;;;;17.13;7.40;;;3.60;99.10;;;;;;5039634;28;20206;-83
2020/12/07 00:33:07;;;;;;;13.27;8.80;;;3.60;99.10;;;;;;5039214;28;20176;-83
2020/12/07 00:35:32;;;;;;;19.17;8.10;;;3.70;99.10;;;;;;5038580;28;20866;-83
2020/12/07 00:37:58;;;;;;;17.27;7.60;;;3.70;99.10;;;;;;5038776;28;20423;-83
2020/12/07 00:40:24;;;;;;;12.90;7.93;;;3.80;99.10;;;;;;5039562;28;20928;-83
2020/12/07 00:42:50;;;;;;;13.03;8.00;;;3.80;99.10;;;;;;5056726;28;20165;-84
2020/12/07 00:45:16;;;;;;;11.90;6.97;;;3.80;99.10;;;;;;5039426;28;20403;-83
2020/12/07 00:47:41;;;;;;;13.03;7.03;;;3.80;99.10;;;;;;5039300;28;21029;-84
2020/12/07 00:50:07;;;;;;;20.73;7.13;;;3.90;99.10;;;;;;5038039;28;20787;-83
2020/12/07 00:52:33;;;;;;;12.80;7.53;;;3.90;99.10;;;;;;5039753;28;20423;-83
2020/12/07 00:54:59;;;;;;;12.47;6.70;;;4.00;99.10;;;;;;5039146;28;20185;-82
2020/12/07 00:57:24;;;;;;;12.80;7.00;;;3.90;99.10;;;;;;5038364;28;20455;-82
2020/12/07 00:59:50;;;;;;;16.70;6.60;;;4.00;99.10;;;;;;5038663;28;20181;-82
2020/12/07 01:02:16;;;;;;;18.00;6.67;;;3.90;99.10;;;;;;5038129;28;20169;-83
2020/12/07 01:04:42;;;;;;;12.80;6.50;;;3.80;99.10;;;;;;5038226;28;20173;-82
2020/12/07 01:07:07;;;;;;;15.80;7.40;;;3.90;99.10;;;;;;5037887;28;20432;-82
2020/12/07 01:09:33;;;;;;;14.80;7.10;;;3.90;99.10;;;;;;5036966;28;20189;-82
2020/12/07 01:12:00;;;;;;;18.73;7.50;;;3.80;99.10;;;;;;5038455;28;20431;-83
2020/12/07 01:14:26;;;;;;;17.17;7.60;;;3.80;99.10;;;;;;5038019;28;20408;-83
2020/12/07 01:16:54;;;;;;;11.52;7.07;;;3.80;99.10;;;;;;5038209;28;20220;-83
2020/12/07 01:19:22;;;;;;;14.75;7.28;;;3.80;99.10;;;;;;5037242;28;20165;-83
2020/12/07 01:21:47;;;;;;;13.55;7.45;;;3.80;99.10;;;;;;5038125;28;20237;-81
2020/12/07 01:24:13;;;;;;;12.93;6.93;;;3.80;99.10;;;;;;5038083;28;20200;-82
2020/12/07 01:26:39;;;;;;;15.67;7.83;;;3.80;99.10;;;;;;5039803;28;20268;-82
2020/12/07 01:29:05;;;;;;;11.05;5.57;;;3.80;99.10;;;;;;5041460;28;20181;-82
2020/12/07 01:31:32;;;;;;;10.63;5.18;;;3.90;99.10;;;;;;5041290;28;20603;-82
2020/12/07 01:33:57;;;;;;;13.48;5.75;;;3.90;99.10;;;;;;5041778;28;20641;-82
2020/12/07 01:36:24;;;;;;;14.37;6.17;;;3.90;99.10;;;;;;5041902;28;20248;-82
2020/12/07 01:38:50;;;;;;;15.00;5.88;;;3.90;99.10;;;;;;5041310;28;20439;-82
2020/12/07 01:41:15;;;;;;;12.20;6.20;;;3.90;99.10;;;;;;5041298;28;20166;-82
2020/12/07 01:43:41;;;;;;;17.70;5.60;;;3.90;99.10;;;;;;5041464;28;20400;-82
2020/12/07 01:46:07;;;;;;;15.57;6.10;;;3.80;99.10;;;;;;5041329;28;20260;-82
2020/12/07 01:48:33;;;;;;;9.40;4.90;;;3.90;99.10;;;;;;5041301;28;20583;-81
2020/12/07 01:50:59;;;;;;;13.07;6.95;;;3.90;99.10;;;;;;5040908;28;20173;-82
2020/12/07 01:53:25;;;;;;;11.35;5.35;;;3.90;99.10;;;;;;5041760;28;20660;-82
2020/12/07 01:55:53;;;;;;;12.80;6.60;;;3.90;99.10;;;;;;5040917;28;20177;-83
2020/12/07 01:58:19;;;;;;;12.13;6.75;;;3.90;99.10;;;;;;5040798;28;20237;-82
2020/12/07 02:00:45;;;;;;;12.40;6.13;;;3.80;99.10;;;;;;5041717;28;20216;-83
2020/12/07 02:03:11;;;;;;;11.67;6.77;;;3.80;99.10;;;;;;5041083;28;20408;-83
2020/12/07 02:05:38;;;;;;;13.43;5.10;;;3.80;99.10;;;;;;5041621;28;20403;-82
2020/12/07 02:08:18;;;;;;;11.30;6.25;;;3.80;99.10;;;;;;5043017;28;20186;-83
2020/12/07 02:10:45;;;;;;;15.07;7.78;;;3.80;99.10;;;;;;5041345;28;20184;-83
2020/12/07 02:13:12;;;;;;;12.60;6.65;;;3.80;99.10;;;;;;5041307;28;20585;-82
2020/12/07 02:15:38;;;;;;;10.57;5.45;;;3.80;99.10;;;;;;5040841;28;20169;-82
2020/12/07 02:18:05;;;;;;;10.32;5.68;;;3.80;99.10;;;;;;5039906;28;20193;-83
2020/12/07 02:20:32;;;;;;;12.93;6.25;;;3.80;99.10;;;;;;5040146;28;20175;-84
2020/12/07 02:22:58;;;;;;;11.70;5.60;;;3.70;99.10;;;;;;5040137;28;20174;-84
2020/12/07 02:25:24;;;;;;;13.43;6.60;;;3.60;99.10;;;;;;5040513;28;20177;-84
2020/12/07 02:27:51;;;;;;;10.77;4.53;;;3.60;99.10;;;;;;5039939;28;20201;-84
2020/12/07 02:30:19;;;;;;;9.38;5.10;;;3.60;99.10;;;;;;5040611;28;20177;-84
2020/12/07 02:32:46;;;;;;;7.18;4.60;;;3.70;99.10;;;;;;5039846;28;20222;-83
2020/12/07 02:35:13;;;;;;;8.75;5.60;;;3.80;99.10;;;;;;5040062;28;20272;-84
2020/12/07 02:37:39;;;;;;;7.28;4.43;;;3.80;99.10;;;;;;5039940;28;20711;-84
2020/12/07 02:40:06;;;;;;;12.00;5.30;;;3.80;99.10;;;;;;5040417;28;20165;-83
2020/12/07 02:42:35;;;;;;;8.50;4.97;;;3.80;99.10;;;;;;5040064;28;20656;-83
2020/12/07 02:45:04;;;;;;;10.25;4.55;;;3.90;99.10;;;;;;5039904;28;20170;-84
2020/12/07 02:47:31;;;;;;;8.40;4.38;;;3.90;99.10;;;;;;5039639;28;20680;-83
2020/12/07 02:49:56;;;;;;;8.23;4.68;;;3.90;99.10;;;;;;5040091;28;20598;-83
2020/12/07 02:52:23;;;;;;;5.77;3.57;;;3.90;99.10;;;;;;5039936;28;20173;-83
2020/12/07 02:54:56;;;;;;;9.30;4.07;;;3.90;99.10;;;;;;5040130;28;20215;-83
2020/12/07 02:57:22;;;;;;;7.20;4.20;;;4.00;99.10;;;;;;5039933;28;20755;-83
2020/12/07 02:59:49;;;;;;;5.47;3.42;;;4.20;99.10;;;;;;5039834;28;20201;-83
2020/12/07 03:02:15;;;;;;;4.72;3.53;;;4.20;99.10;;;;;;5039505;28;20165;-83
2020/12/07 03:04:41;;;;;;;8.98;5.20;;;4.20;99.10;;;;;;5039088;28;20165;-83
2020/12/07 03:07:07;;;;;;;6.82;3.80;;;4.30;99.10;;;;;;5039124;28;20193;-84
2020/12/07 03:09:33;;;;;;;4.82;3.25;;;4.30;99.10;;;;;;5051860;22;20227;-80
2020/12/07 03:11:59;;;;;;;4.65;2.72;;;4.30;99.10;;;;;;5038830;28;20215;-80
2020/12/07 03:14:25;;;;;;;3.10;2.50;;;4.20;99.10;;;;;;5039394;28;20173;-80
2020/12/07 03:16:52;;;;;;;7.10;3.63;;;4.20;99.10;;;;;;5039221;28;21064;-80
2020/12/07 03:19:18;;;;;;;3.90;3.05;;;4.20;99.10;;;;;;5038823;28;20172;-80
2020/12/07 03:21:44;;;;;;;6.00;3.50;;;4.20;99.10;;;;;;5039152;28;20174;-80
2020/12/07 03:24:10;;;;;;;3.80;2.57;;;4.30;99.10;;;;;;5038649;28;20180;-80
2020/12/07 03:26:36;;;;;;;7.20;3.00;;;4.20;99.10;;;;;;5038657;28;20843;-80
2020/12/07 03:29:03;;;;;;;4.93;3.30;;;4.30;99.10;;;;;;5038457;28;20412;-80
2020/12/07 03:31:35;;;;;;;3.78;2.75;;;4.30;99.10;;;;;;5038237;28;20694;-80
2020/12/07 03:34:02;;;;;;;5.30;3.20;;;4.30;99.10;;;;;;5056459;28;20666;-80
2020/12/07 03:36:28;;;;;;;5.45;3.45;;;4.30;99.10;;;;;;5037964;28;20245;-80
2020/12/07 03:38:54;;;;;;;4.20;2.60;;;4.30;99.10;;;;;;5037458;28;20261;-80
2020/12/07 03:41:20;;;;;;;4.43;2.45;;;4.30;99.10;;;;;;5039155;28;20503;-80
2020/12/07 03:43:46;;;;;;;4.23;2.80;;;4.30;99.10;;;;;;5038772;28;20451;-80
2020/12/07 03:46:12;;;;;;;5.05;3.28;;;4.30;99.10;;;;;;5039181;28;20959;-80
2020/12/07 03:48:39;;;;;;;5.10;3.15;;;4.30;99.10;;;;;;5038352;28;20276;-80
2020/12/07 03:51:05;;;;;;;5.30;2.85;;;4.20;99.10;;;;;;5037954;28;20169;-80
2020/12/07 03:53:32;;;;;;;3.88;2.70;;;4.30;99.10;;;;;;5038562;28;20680;-80
2020/12/07 03:55:58;;;;;;;8.13;3.85;;;4.30;99.10;;;;;;5040654;28;20233;-81
2020/12/07 03:58:24;;;;;;;5.95;3.05;;;4.20;99.10;;;;;;5041972;28;20173;-82
2020/12/07 04:00:50;;;;;;;5.18;2.90;;;4.20;99.10;;;;;;5040159;28;20173;-82
2020/12/07 04:03:16;;;;;;;6.90;3.30;;;4.10;99.10;;;;;;5040355;28;20188;-81
2020/12/07 04:05:44;;;;;;;6.90;2.77;;;4.20;99.10;;;;;;5039860;28;20173;-81
2020/12/07 04:08:10;;;;;;;6.40;3.00;;;4.20;99.10;;;;;;5040561;28;20439;-81
2020/12/07 04:10:38;;;;;;;8.85;3.80;;;4.20;99.10;;;;;;5040349;28;20538;-81
2020/12/07 04:13:05;;;;;;;4.68;3.22;;;4.20;99.10;;;;;;5039735;28;20177;-81
2020/12/07 04:15:31;;;;;;;10.65;4.32;;;4.20;99.10;;;;;;5040408;28;20436;-81
2020/12/07 04:17:57;;;;;;;6.07;3.08;;;4.20;99.10;;;;;;5039688;28;20225;-82
2020/12/07 04:20:22;;;;;;;7.67;3.50;;;4.30;99.10;;;;;;5039862;28;20181;-82
2020/12/07 04:22:48;;;;;;;6.67;3.50;;;4.10;99.10;;;;;;5038349;28;20903;-82
2020/12/07 04:25:14;;;;;;;4.57;3.03;;;4.10;99.10;;;;;;5038742;28;20418;-82
2020/12/07 04:27:40;;;;;;;8.00;3.70;;;4.10;99.10;;;;;;5038629;28;20443;-82
2020/12/07 04:30:06;;;;;;;8.07;3.40;;;4.20;99.10;;;;;;5039178;28;20411;-82
2020/12/07 04:32:31;;;;;;;9.97;3.80;;;4.20;99.10;;;;;;5039116;28;20582;-83
2020/12/07 04:34:57;;;;;;;10.10;3.40;;;4.30;99.10;;;;;;5040131;28;20486;-82
2020/12/07 04:37:23;;;;;;;8.83;3.63;;;4.30;99.10;;;;;;5039842;28;20259;-82
2020/12/07 04:39:50;;;;;;;13.00;3.47;;;4.30;99.10;;;;;;5037666;28;20472;-82
2020/12/07 04:42:16;;;;;;;7.03;3.20;;;4.30;99.10;;;;;;5038402;28;20496;-83
2020/12/07 04:44:42;;;;;;;8.25;3.53;;;4.30;99.10;;;;;;5037816;28;20196;-83
2020/12/07 04:47:09;;;;;;;7.10;3.20;;;4.40;99.10;;;;;;5038234;28;20197;-82
2020/12/07 04:49:36;;;;;;;8.07;3.72;;;4.40;99.10;;;;;;5038363;28;20582;-82
2020/12/07 04:52:03;;;;;;;6.38;3.22;;;4.30;99.10;;;;;;5038528;28;20546;-81
2020/12/07 04:54:29;;;;;;;7.65;3.80;;;4.40;99.10;;;;;;5038328;28;20629;-82
2020/12/07 04:56:57;;;;;;;5.45;3.70;;;4.40;99.10;;;;;;5038493;28;20211;-80
2020/12/07 04:59:23;;;;;;;6.75;3.80;;;4.40;99.10;;;;;;5036640;28;20641;-80
2020/12/07 05:01:50;;;;;;;9.80;4.18;;;4.50;99.10;;;;;;5039762;28;20688;-79
2020/12/07 05:04:16;;;;;;;10.10;4.50;;;4.50;99.10;;;;;;5039396;28;20169;-79
2020/12/07 05:06:42;;;;;;;9.87;3.90;;;4.50;99.10;;;;;;5039768;28;20208;-80
2020/12/07 05:09:09;;;;;;;6.35;4.13;;;4.50;99.10;;;;;;5039445;28;20443;-80
2020/12/07 05:11:35;;;;;;;9.80;3.92;;;4.50;99.10;;;;;;5039758;28;20272;-79
2020/12/07 05:16:28;;;;;;;9.68;4.30;;;4.50;99.10;;;;;;5058423;28;20224;-81
2020/12/07 05:18:54;;;;;;;12.10;4.70;;;4.50;99.10;;;;;;5040715;28;20226;-80
2020/12/07 05:21:20;;;;;;;16.13;4.47;;;4.50;99.10;;;;;;5040085;28;20193;-81
2020/12/07 05:23:51;;;;;;;9.10;4.50;;;4.50;99.10;;;;;;5041772;28;20407;-81
2020/12/07 05:26:18;;;;;;;7.15;3.65;;;4.50;99.10;;;;;;5039887;28;20431;-81
2020/12/07 05:28:48;;;;;;;7.22;4.18;;;4.50;99.10;;;;;;5039541;28;20180;-81
2020/12/07 05:31:18;;;;;;;6.05;3.85;;;4.50;99.10;;;;;;5039616;28;20559;-81
2020/12/07 05:33:49;;;;;;;9.25;4.32;;;4.40;99.10;;;;;;5040176;28;20585;-81
2020/12/07 05:36:16;;;;;;;5.70;2.70;;;4.40;99.10;;;;;;5039786;28;20209;-81
2020/12/07 05:38:45;;;;;;;5.20;2.83;;;4.40;99.10;;;;;;5039330;28;20548;-81
2020/12/07 05:41:11;;;;;;;8.10;3.65;;;4.40;99.10;;;;;;5039475;28;20165;-82
2020/12/07 05:43:38;;;;;;;5.95;3.10;;;4.40;99.10;;;;;;5038933;28;20645;-81
2020/12/07 05:46:05;;;;;;;5.70;2.95;;;4.50;99.10;;;;;;5039787;28;20177;-80
2020/12/07 05:48:35;;;;;;;8.15;3.65;;;4.50;99.10;;;;;;5038382;28;20181;-80
2020/12/07 05:51:07;;;;;;;4.88;3.28;;;4.50;99.10;;;;;;5039111;28;20222;-80
2020/12/07 05:53:37;;;;;;;5.15;3.15;;;4.50;99.10;;;;;;5039038;28;20173;-80
2020/12/07 05:56:05;;;;;;;9.48;4.15;;;4.60;99.10;;;;;;5038687;28;20204;-80
2020/12/07 05:58:41;;;;;;;6.30;3.40;;;4.60;99.10;;;;;;5038585;28;20186;-80
2020/12/07 06:01:09;;;;;;;9.25;3.65;;;4.60;99.10;;;;;;5039004;28;20516;-81
2020/12/07 06:03:36;;;;;;;7.75;3.85;;;4.60;99.10;;;;;;5055519;28;20207;-80
2020/12/07 06:06:02;;;;;;;8.60;4.00;;;4.50;99.10;;;;;;5037528;28;20223;-80
2020/12/07 06:08:34;;;;;;;8.20;4.37;;;4.50;99.10;;;;;;5037059;28;20181;-80
2020/12/07 06:11:12;;;;;;;4.68;2.88;;;4.50;99.10;;;;;;5036880;28;20193;-81
2020/12/07 06:13:39;;;;;;;6.63;3.72;;;4.60;99.10;;;;;;5036813;28;20259;-80
2020/12/07 06:16:07;;;;;;;10.23;3.45;;;4.50;99.10;;;;;;5036991;28;20196;-80
2020/12/07 06:18:34;;;;;;;6.50;3.53;;;4.60;99.10;;;;;;5037093;28;20543;-81
2020/12/07 06:21:11;;;;;;;9.75;4.18;;;4.60;99.10;;;;;;5036820;28;20733;-82
2020/12/07 06:23:40;;;;;;;7.63;4.20;;;4.50;99.10;;;;;;5037168;28;20172;-82
2020/12/07 06:26:08;;;;;;;9.73;4.55;;;4.50;99.10;;;;;;5036683;28;20169;-81
2020/12/07 06:28:36;;;;;;;6.72;3.58;;;4.50;99.10;;;;;;5036512;28;20180;-81
2020/12/07 06:31:10;;;;;;;7.72;3.85;;;4.50;99.10;;;;;;5036912;28;20173;-81
2020/12/07 06:33:46;;;;;;;7.65;3.85;;;4.50;99.10;;;;;;5036942;28;20227;-80
2020/12/07 06:36:24;;;;;;;13.52;4.38;;;4.50;99.10;;;;;;5037450;28;20299;-81
2020/12/07 06:38:50;;;;;;;14.40;5.22;;;4.40;99.10;;;;;;5037192;28;20175;-81
2020/12/07 06:41:36;;;;;;;15.57;4.80;;;4.40;99.10;;;;;;5037268;28;20185;-81
2020/12/07 06:44:10;;;;;;;13.20;5.88;;;4.40;99.10;;;;;;5037412;28;20429;-81
2020/12/07 06:47:09;;;;;;;15.40;5.35;;;4.30;99.10;;;;;;5036908;28;20284;-81
2020/12/07 06:52:28;;;;;;;9.48;4.63;;;4.40;99.10;;;;;;5055864;28;20226;-81
2020/12/07 06:55:15;;;;;;;10.02;4.72;;;4.40;99.10;;;;;;5037701;28;20169;-81
2020/12/07 06:57:44;;;;;;;13.02;5.53;;;4.40;99.10;;;;;;5037095;28;20700;-81
2020/12/07 07:00:11;;;;;;;13.70;5.25;;;4.40;99.10;;;;;;5036793;28;20175;-81
2020/12/07 07:02:39;;;;;;;16.42;6.47;;;4.40;99.10;;;;;;5038367;28;20179;-81
2020/12/07 07:05:06;;;;;;;15.45;6.28;;;4.40;99.10;;;;;;5038315;28;20165;-81
2020/12/07 07:07:33;;;;;;;13.73;5.97;;;4.40;99.10;;;;;;5038286;28;20193;-81
2020/12/07 07:09:59;;;;;;;13.57;5.13;;;4.30;99.10;;;;;;5038458;28;20594;-81
2020/12/07 07:12:26;;;;;;;9.45;4.93;;;4.40;99.10;;;;;;5039013;28;20599;-81
2020/12/07 07:14:53;;;;;;;11.57;5.40;;;4.40;99.10;;;;;;5038229;28;20177;-81
2020/12/07 07:17:21;;;;;;;11.35;5.60;;;4.30;99.10;;;;;;5038162;28;20701;-81
2020/12/07 07:19:48;;;;;;;11.48;5.88;;;4.30;99.10;;;;;;5022960;28;20201;-81
2020/12/07 07:22:14;;;;;;;13.63;6.68;;;4.30;99.10;;;;;;5039165;28;20197;-81
2020/12/07 07:29:56;;;;;;;10.43;5.88;;;4.30;99.10;;;;;;5056789;28;20200;-81
2020/12/07 07:32:22;;;;;;;8.98;6.10;;;4.30;99.10;;;;;;5038059;28;20177;-81
2020/12/07 07:34:49;;;;;;;18.08;6.25;;;4.40;99.10;;;;;;5038792;28;20177;-81
2020/12/07 07:37:18;;;;;;;13.60;5.60;;;4.40;99.10;;;;;;5037713;28;20258;-81
2020/12/07 07:39:46;;;;;;;15.63;6.00;;;4.40;99.10;;;;;;5038077;28;20177;-81
2020/12/07 07:42:14;;;;;;;10.10;6.10;;;4.50;99.10;;;;;;5038213;28;20169;-81
2020/12/07 07:44:43;;;;;;;11.32;5.75;;;4.40;99.10;;;;;;5037522;28;20173;-81
2020/12/07 07:47:15;;;;;;;14.20;6.93;;;4.40;99.10;;;;;;5037508;28;20196;-81
2020/12/07 07:50:24;;;;;;;14.05;5.97;;;4.40;99.10;;;;;;5037480;28;20161;-81
2020/12/07 08:17:14;;;;;;;18.85;6.93;;;5.00;99.10;;;;;;5053969;28;20712;-80
2020/12/07 08:19:40;;;;;;;16.52;6.45;;;5.00;99.10;;;;;;5035817;28;20161;-80
2020/12/07 08:22:17;;;;;;;16.15;6.90;;;5.10;99.10;;;;;;5036448;28;20250;-80
2020/12/07 08:24:55;;;;;;;13.80;7.15;;;5.20;99.10;;;;;;5037252;28;20512;-80
2020/12/07 08:27:21;;;;;;;15.00;7.00;;;5.20;99.10;;;;;;5036980;28;20228;-80
2020/12/07 08:29:47;;;;;;;12.27;6.27;;;5.30;99.10;;;;;;5037062;28;20181;-80
2020/12/07 08:32:22;;;;;;;11.80;6.33;;;5.30;99.10;;;;;;5036430;28;20935;-80
2020/12/07 08:34:48;;;;;;;18.70;6.95;;;5.40;99.10;;;;;;5037008;28;20477;-80
2020/12/07 08:37:14;;;;;;;10.43;5.80;;;5.50;99.10;;;;;;5039996;28;20201;-80
2020/12/07 08:39:40;;;;;;;16.03;7.23;;;5.60;99.10;;;;;;5039518;28;20435;-80
2020/12/07 08:42:06;;;;;;;17.70;6.73;;;5.70;99.10;;;;;;5041496;28;20451;-80
2020/12/07 08:44:31;;;;;;;16.20;7.10;;;5.70;99.10;;;;;;5041711;28;20452;-80
2020/12/07 08:46:57;;;;;;;11.77;6.90;;;5.70;99.10;;;;;;5041050;28;20431;-80
2020/12/07 08:49:23;;;;;;;14.23;6.87;;;5.80;99.10;;;;;;5041036;28;20407;-80
2020/12/07 08:51:49;;;;;;;16.80;7.17;;;5.80;99.10;;;;;;5041715;28;20469;-80
2020/12/07 08:54:15;;;;;;;13.67;7.97;;;5.80;99.10;;;;;;5041455;28;20438;-80
2020/12/07 08:56:40;;;;;;;14.30;7.47;;;5.80;99.10;;;;;;5041144;28;20574;-80
2020/12/07 08:59:06;;;;;;;17.03;8.00;;;5.90;99.10;;;;;;5041115;28;20180;-80
2020/12/07 09:01:32;;;;;;;10.88;6.43;;;6.10;99.00;;;;;;5042137;28;20473;-80
2020/12/07 09:04:01;;;;;;;11.23;6.03;;;6.20;98.00;;;;;;5042666;28;20183;-80
2020/12/07 09:06:27;;;;;;;16.60;6.88;;;6.20;97.60;;;;;;5041874;28;20439;-80
2020/12/07 09:08:53;;;;;;;12.10;7.13;;;6.20;97.30;;;;;;5041606;28;20177;-80
2020/12/07 09:11:19;;;;;;;9.30;6.27;;;6.30;97.90;;;;;;5127259;22;20569;-83
2020/12/07 09:13:45;;;;;;;27.13;6.97;;;6.30;96.30;;;;;;5057175;28;20227;-83
2020/12/07 09:16:11;;;;;;;21.77;8.60;;;6.20;95.90;;;;;;5057849;28;20225;-83
2020/12/07 09:18:41;;;;;;;16.48;7.15;;;6.20;96.90;;;;;;5040134;28;20184;-83
2020/12/07 09:21:08;;;;;;;15.55;7.22;;;6.20;97.40;;;;;;5040049;28;20197;-83
2020/12/07 09:23:35;;;;;;;14.38;7.05;;;6.20;96.80;;;;;;5040784;28;20223;-83
2020/12/07 09:26:02;;;;;;;18.20;7.20;;;6.10;96.90;;;;;;5040218;28;20165;-83
2020/12/07 09:28:28;;;;;;;13.23;7.82;;;6.00;97.20;;;;;;5040139;28;20166;-83
2020/12/07 09:30:54;;;;;;;15.63;7.38;;;5.90;97.30;;;;;;5040772;28;20169;-83
2020/12/07 09:33:19;;;;;;;14.27;7.80;;;5.90;97.60;;;;;;5039286;28;20310;-83
2020/12/07 09:35:45;;;;;;;10.90;6.50;;;6.00;97.90;;;;;;5039833;28;20419;-83
2020/12/07 09:38:11;;;;;;;17.50;8.50;;;6.00;97.70;;;;;;5038490;28;20467;-83
2020/12/07 09:40:37;;;;;;;17.47;9.67;;;6.00;97.60;;;;;;5043659;28;20416;-83
2020/12/07 09:43:03;;;;;;;17.60;7.72;;;6.00;97.70;;;;;;5044728;28;20647;-83
2020/12/07 09:45:30;;;;;;;23.70;7.90;;;6.10;97.60;;;;;;5042794;28;20299;-83
2020/12/07 09:47:56;;;;;;;17.55;8.35;;;6.10;97.50;;;;;;5040458;28;20200;-83
2020/12/07 09:50:22;;;;;;;14.98;7.90;;;6.10;97.40;;;;;;5042048;28;20177;-83
2020/12/07 09:52:48;;;;;;;16.60;7.23;;;6.10;97.50;;;;;;5060801;28;20237;-83
2020/12/07 09:55:14;;;;;;;13.67;7.00;;;6.10;97.50;;;;;;5041755;28;20412;-83
2020/12/07 09:57:39;;;;;;;24.37;7.90;;;6.10;96.90;;;;;;5042158;28;20490;-83
2020/12/07 10:00:06;;;;;;;10.87;6.20;;;6.10;96.80;;;;;;5042395;28;20180;-83
2020/12/07 10:02:31;;;;;;;13.45;7.90;;;6.10;97.00;;;;;;5042313;28;20185;-83
2020/12/07 10:04:58;;;;;;;17.03;6.50;;;6.20;97.40;;;;;;5041746;28;20173;-83
2020/12/07 10:07:25;;;;;;;12.57;6.43;;;6.20;97.10;;;;;;5041853;28;20921;-83
2020/12/07 10:09:50;;;;;;;12.35;6.47;;;6.20;97.00;;;;;;5042110;28;20665;-82
2020/12/07 10:12:16;;;;;;;15.23;8.00;;;6.20;96.30;;;;;;5041691;28;20172;-83
2020/12/07 10:14:42;;;;;;;14.03;6.73;;;6.20;96.60;;;;;;5041788;28;21008;-83
2020/12/07 10:17:08;;;;;;;16.67;7.40;;;6.30;96.80;;;;;;5042354;28;20502;-83
2020/12/07 10:19:34;;;;;;;15.90;6.93;;;6.30;96.20;;;;;;5042580;28;20404;-82
2020/12/07 10:22:04;;;;;;;12.33;6.47;;;6.30;95.80;;;;;;5042423;28;20200;-83
2020/12/07 10:24:31;;;;;;;11.45;6.05;;;6.30;95.50;;;;;;5042275;28;20532;-83
2020/12/07 10:26:56;;;;;;;9.45;4.90;;;6.30;95.90;;;;;;5041237;28;20773;-82
2020/12/07 10:29:22;;;;;;;11.10;4.93;;;6.30;95.80;;;;;;5041037;28;20209;-83
2020/12/07 10:31:48;;;;;;;8.77;4.70;;;6.40;95.10;;;;;;5040976;28;20420;-83
2020/12/07 10:34:14;;;;;;;6.70;4.40;;;6.40;93.90;;;;;;5042266;28;20189;-83
2020/12/07 10:36:45;;;;;;;10.03;4.50;;;6.30;93.80;;;;;;5041582;28;20681;-83
2020/12/07 10:39:11;;;;;;;12.25;5.43;;;6.30;93.90;;;;;;5041880;28;20432;-83
2020/12/07 10:41:36;;;;;;;15.57;5.13;;;6.40;94.30;;;;;;5043176;28;20653;-83
2020/12/07 10:44:02;;;;;;;9.50;4.70;;;6.50;93.80;;;;;;5042806;28;20187;-83
2020/12/07 10:46:28;;;;;;;8.83;5.00;;;6.50;93.60;;;;;;5042321;28;20215;-83
2020/12/07 10:48:54;;;;;;;8.60;4.30;;;6.60;93.00;;;;;;5042631;28;20785;-83
2020/12/07 10:51:19;;;;;;;10.40;5.20;;;6.60;92.70;;;;;;5042124;28;20491;-83
2020/12/07 10:53:46;;;;;;;14.13;4.93;;;6.70;92.50;;;;;;5059706;28;20553;-83
2020/12/07 10:56:14;;;;;;;11.02;5.70;;;6.70;92.30;;;;;;5042203;28;20173;-83
2020/12/07 10:58:40;;;;;;;10.85;4.95;;;6.70;92.40;;;;;;5041601;28;20170;-82
2020/12/07 11:01:06;;;;;;;9.15;4.53;;;6.70;92.90;;;;;;5042770;28;20169;-83
2020/12/07 11:03:33;;;;;;;6.15;3.75;;;6.70;91.80;;;;;;5042290;28;20177;-83
2020/12/07 11:06:03;;;;;;;8.98;4.53;;;6.70;92.10;;;;;;5041425;28;20169;-83
2020/12/07 11:08:46;;;;;;;9.25;4.38;;;6.80;92.30;;;;;;5041527;28;20173;-83
2020/12/07 11:11:12;;;;;;;14.52;4.05;;;6.70;92.10;;;;;;5042250;28;20185;-82
2020/12/07 11:13:38;;;;;;;6.50;3.73;;;6.70;92.00;;;;;;5041900;28;20265;-82
2020/12/07 11:16:05;;;;;;;9.90;4.20;;;6.70;92.70;;;;;;5041884;28;20437;-82
2020/12/07 11:18:35;;;;;;;4.75;3.33;;;6.70;91.40;;;;;;5040571;28;20419;-83
2020/12/07 11:21:01;;;;;;;8.85;4.43;;;6.60;91.20;;;;;;5041060;28;20172;-82
2020/12/07 11:23:27;;;;;;;6.60;3.93;;;6.60;91.80;;;;;;5039680;28;20173;-82
2020/12/07 11:25:52;;;;;;;4.17;2.90;;;6.70;91.40;;;;;;5039419;28;20412;-82
2020/12/07 11:28:18;;;;;;;9.80;4.10;;;6.60;90.80;;;;;;5039393;28;20412;-83
2020/12/07 11:30:44;;;;;;;5.50;2.80;;;6.60;91.30;;;;;;5039534;28;20204;-82
2020/12/07 11:33:10;;;;;;;11.47;3.17;;;6.70;91.00;;;;;;5038559;28;20170;-82
2020/12/07 11:35:36;;;;;;;6.90;3.47;;;6.70;90.90;;;;;;5038509;28;20404;-82
2020/12/07 11:38:22;;;;;;;6.73;4.30;;;6.70;90.80;;;;;;5041471;28;20705;-82
2020/12/07 11:43:18;;;;;;;8.13;4.23;;;7.00;91.70;;;;;;5060256;28;20165;-83
2020/12/07 11:45:44;;;;;;;7.32;3.83;;;7.10;90.90;;;;;;5041728;28;20419;-83
2020/12/07 11:48:10;;;;;;;6.63;3.78;;;7.30;90.80;;;;;;5041552;28;20260;-82
2020/12/07 11:50:37;;;;;;;9.85;5.13;;;7.10;88.50;;;;;;5041377;28;20177;-83
2020/12/07 11:53:03;;;;;;;7.57;4.50;;;7.10;90.40;;;;;;5040920;28;20185;-83
2020/12/07 11:55:29;;;;;;;7.32;5.10;;;7.20;90.30;;;;;;5041663;28;20230;-83
2020/12/07 11:57:55;;;;;;;13.45;5.28;;;7.30;90.90;;;;;;5042196;28;20208;-83
2020/12/07 12:00:21;;;;;;;8.80;4.30;;;7.50;87.70;;;;;;5041018;28;20647;-83
2020/12/07 12:02:47;;;;;;;5.88;3.83;;;7.50;87.60;;;;;;5042003;28;20816;-82
2020/12/07 12:05:13;;;;;;;9.03;4.13;;;7.50;86.00;;;;;;5041692;28;20169;-83
2020/12/07 12:07:39;;;;;;;7.87;3.33;;;7.50;87.30;;;;;;5041958;28;20193;-83
2020/12/07 12:10:05;;;;;;;5.77;3.83;;;7.40;86.70;;;;;;5041120;28;20661;-83
2020/12/07 12:12:30;;;;;;;5.63;3.30;;;7.30;85.50;;;;;;5042501;28;20597;-83
2020/12/07 12:14:56;;;;;;;4.83;3.30;;;7.20;87.10;;;;;;5042105;28;20187;-83
2020/12/07 12:17:22;;;;;;;5.57;3.60;;;7.10;86.40;;;;;;5042833;28;20218;-83
2020/12/07 12:19:47;;;;;;;7.87;3.90;;;7.10;88.00;;;;;;5042407;28;20173;-83
2020/12/07 12:22:13;;;;;;;6.77;3.67;;;7.10;89.50;;;;;;5042200;28;20172;-83
2020/12/07 12:24:39;;;;;;;5.00;3.20;;;7.00;86.70;;;;;;5041447;28;20204;-80
2020/12/07 12:27:05;;;;;;;17.27;6.30;;;7.10;87.80;;;;;;5041270;28;20193;-81
2020/12/07 12:29:30;;;;;;;13.37;5.70;;;7.10;87.60;;;;;;5041765;28;20498;-83
2020/12/07 12:31:56;;;;;;;19.37;5.93;;;7.00;86.70;;;;;;5042988;28;20180;-82
2020/12/07 12:34:22;;;;;;;3.97;2.90;;;7.00;87.30;;;;;;5041601;28;20483;-83
2020/12/07 12:36:49;;;;;;;9.00;4.57;;;7.10;88.70;;;;;;5041674;28;20287;-83
2020/12/07 12:39:15;;;;;;;5.85;3.35;;;7.00;88.10;;;;;;5041103;28;20422;-83
2020/12/07 12:41:42;;;;;;;6.50;3.88;;;7.00;89.40;;;;;;5041081;28;20169;-83
2020/12/07 12:44:08;;;;;;;4.90;3.42;;;7.00;89.80;;;;;;5041038;28;20287;-82
2020/12/07 12:46:40;;;;;;;6.15;3.30;;;6.90;89.80;;;;;;5040559;28;20624;-82
2020/12/07 12:49:06;;;;;;;5.00;3.15;;;6.80;90.30;;;;;;5041051;28;20180;-83
2020/12/07 12:51:32;;;;;;;5.22;2.97;;;6.90;89.60;;;;;;5040976;28;20173;-84
2020/12/07 12:53:59;;;;;;;5.15;3.20;;;6.80;89.10;;;;;;5039401;28;20176;-85
2020/12/07 12:56:25;;;;;;;6.45;3.97;;;6.80;88.70;;;;;;5039285;28;20208;-85
2020/12/07 12:58:51;;;;;;;10.73;3.50;;;6.80;89.50;;;;;;5040535;28;20229;-83
2020/12/07 13:01:17;;;;;;;7.40;3.97;;;6.80;89.20;;;;;;5040969;28;20416;-83
2020/12/07 13:03:42;;;;;;;8.93;4.13;;;7.00;88.10;;;;;;5041134;28;20443;-83
2020/12/07 13:06:08;;;;;;;10.23;4.63;;;7.00;88.30;;;;;;5040568;28;20939;-83
2020/12/07 13:08:34;;;;;;;8.07;4.60;;;7.10;90.10;;;;;;5040512;28;20466;-83
2020/12/07 13:11:00;;;;;;;5.95;3.58;;;7.10;86.90;;;;;;5040150;28;20189;-83
2020/12/07 13:13:26;;;;;;;7.23;3.43;;;7.20;87.40;;;;;;5039876;28;20196;-83
2020/12/07 13:18:18;;;;;;;4.55;2.63;;;7.30;87.60;;;;;;5058069;28;20208;-84
2020/12/07 13:23:35;;;;;;;6.65;4.03;;;7.40;85.60;;;;;;5061614;28;20636;-83
2020/12/07 13:26:44;;;;;;;8.63;2.78;;;7.30;87.30;;;;;;5043428;28;20169;-83
2020/12/07 13:28:53;;;;;;;9.65;4.90;;;7.10;86.40;;;;;;5057009;28;20174;-82
2020/12/07 13:31:19;;;;;;;4.70;2.30;;;7.20;88.00;;;;;;5042572;28;20170;-82
2020/12/07 13:33:44;;;;;;;4.67;2.70;;;7.10;87.40;;;;;;5043239;28;20768;-83
2020/12/07 13:36:18;;;;;;;2.90;2.20;;;6.90;87.40;;;;;;5042755;28;20411;-82